createdAt,value
2019-02-14T00:00:32.806Z,1020.59
2019-02-14T00:01:32.803Z,1020.55
2019-02-14T00:02:32.805Z,1020.54
2019-02-14T00:03:32.817Z,1020.51
2019-02-14T00:04:32.771Z,1020.51
2019-02-14T00:05:32.767Z,1020.47
2019-02-14T00:06:32.747Z,1020.51
2019-02-14T00:07:32.731Z,1020.50
2019-02-14T00:08:32.749Z,1020.45
2019-02-14T00:09:32.715Z,1020.48
2019-02-14T00:10:32.717Z,1020.47
2019-02-14T00:11:32.693Z,1020.41
2019-02-14T00:12:33.518Z,1020.44
2019-02-14T00:13:32.695Z,1020.50
2019-02-14T00:14:32.688Z,1020.49
2019-02-14T00:15:32.679Z,1020.51
2019-02-14T00:16:32.659Z,1020.50
2019-02-14T00:17:32.621Z,1020.51
2019-02-14T00:18:32.635Z,1020.54
2019-02-14T00:19:32.615Z,1020.57
2019-02-14T00:20:32.594Z,1020.55
2019-02-14T00:21:32.665Z,1020.57
2019-02-14T00:22:32.607Z,1020.62
2019-02-14T00:23:32.587Z,1020.61
2019-02-14T00:24:32.557Z,1020.63
2019-02-14T00:25:32.538Z,1020.66
2019-02-14T00:26:32.543Z,1020.67
2019-02-14T00:27:32.530Z,1020.65
2019-02-14T00:28:32.527Z,1020.65
2019-02-14T00:29:32.502Z,1020.66
2019-02-14T00:30:32.519Z,1020.59
2019-02-14T00:31:32.502Z,1020.60
2019-02-14T00:32:32.462Z,1020.62
2019-02-14T00:33:32.480Z,1020.59
2019-02-14T00:34:32.448Z,1020.60
2019-02-14T00:35:32.441Z,1020.60
2019-02-14T00:36:32.446Z,1020.53
2019-02-14T00:37:32.459Z,1020.51
2019-02-14T00:38:32.405Z,1020.51
2019-02-14T00:39:32.393Z,1020.51
2019-02-14T00:40:32.394Z,1020.48
2019-02-14T00:41:32.387Z,1020.52
2019-02-14T00:42:32.388Z,1020.53
2019-02-14T00:43:32.416Z,1020.52
2019-02-14T00:44:32.349Z,1020.51
2019-02-14T00:45:32.341Z,1020.55
2019-02-14T00:46:32.349Z,1020.53
2019-02-14T00:47:32.313Z,1020.56
2019-02-14T00:48:32.315Z,1020.54
2019-02-14T00:49:32.332Z,1020.57
2019-02-14T00:50:32.280Z,1020.54
2019-02-14T00:51:32.274Z,1020.56
2019-02-14T00:52:32.344Z,1020.55
2019-02-14T00:53:32.263Z,1020.56
2019-02-14T00:54:32.289Z,1020.58
2019-02-14T00:55:32.224Z,1020.52
2019-02-14T00:56:32.266Z,1020.55
2019-02-14T00:57:32.263Z,1020.57
2019-02-14T00:58:32.221Z,1020.54
2019-02-14T00:59:32.188Z,1020.55
2019-02-14T01:00:32.176Z,1020.58
2019-02-14T01:01:32.190Z,1020.58
2019-02-14T01:02:32.201Z,1020.59
2019-02-14T01:03:32.221Z,1020.50
2019-02-14T01:04:32.133Z,1020.54
2019-02-14T01:05:33.818Z,1020.47
2019-02-14T01:06:32.127Z,1020.49
2019-02-14T01:07:32.155Z,1020.53
2019-02-14T01:08:32.146Z,1020.54
2019-02-14T01:09:32.121Z,1020.57
2019-02-14T01:10:32.101Z,1020.53
2019-02-14T01:11:32.054Z,1020.55
2019-02-14T01:12:32.220Z,1020.56
2019-02-14T01:13:32.089Z,1020.56
2019-02-14T01:14:32.026Z,1020.59
2019-02-14T01:15:32.054Z,1020.62
2019-02-14T01:16:31.997Z,1020.59
2019-02-14T01:17:32.004Z,1020.57
2019-02-14T01:18:32.032Z,1020.55
2019-02-14T01:19:32.044Z,1020.53
2019-02-14T01:20:31.980Z,1020.52
2019-02-14T01:21:31.956Z,1020.51
2019-02-14T01:22:31.936Z,1020.50
2019-02-14T01:23:31.945Z,1020.52
2019-02-14T01:24:31.934Z,1020.50
2019-02-14T01:25:31.912Z,1020.50
2019-02-14T01:26:31.906Z,1020.49
2019-02-14T01:27:31.883Z,1020.50
2019-02-14T01:28:31.896Z,1020.51
2019-02-14T01:29:31.906Z,1020.52
2019-02-14T01:30:31.862Z,1020.55
2019-02-14T01:31:31.864Z,1020.55
2019-02-14T01:32:31.853Z,1020.54
2019-02-14T01:33:31.874Z,1020.52
2019-02-14T01:34:31.810Z,1020.51
2019-02-14T01:35:31.799Z,1020.49
2019-02-14T01:36:31.817Z,1020.53
2019-02-14T01:37:31.788Z,1020.54
2019-02-14T01:38:31.773Z,1020.57
2019-02-14T01:39:31.799Z,1020.54
2019-02-14T01:40:31.790Z,1020.58
2019-02-14T01:41:31.749Z,1020.60
2019-02-14T01:42:31.768Z,1020.59
2019-02-14T01:43:31.708Z,1020.57
2019-02-14T01:44:31.698Z,1020.54
2019-02-14T01:45:31.708Z,1020.55
2019-02-14T01:46:31.704Z,1020.56
2019-02-14T01:47:31.708Z,1020.54
2019-02-14T01:48:31.692Z,1020.55
2019-02-14T01:49:31.723Z,1020.56
2019-02-14T01:50:31.649Z,1020.49
2019-02-14T01:51:31.632Z,1020.50
2019-02-14T01:52:31.665Z,1020.52
2019-02-14T01:53:31.631Z,1020.54
2019-02-14T01:54:31.654Z,1020.50
2019-02-14T01:55:32.616Z,1020.52
2019-02-14T01:56:31.572Z,1020.52
2019-02-14T01:57:31.569Z,1020.51
2019-02-14T01:58:31.569Z,1020.50
2019-02-14T01:59:31.580Z,1020.49
2019-02-14T02:00:31.572Z,1020.49
2019-02-14T02:01:31.523Z,1020.46
2019-02-14T02:02:31.512Z,1020.42
2019-02-14T02:03:31.509Z,1020.44
2019-02-14T02:04:31.545Z,1020.44
2019-02-14T02:05:31.470Z,1020.48
2019-02-14T02:06:31.479Z,1020.46
2019-02-14T02:07:31.451Z,1020.45
2019-02-14T02:08:31.440Z,1020.46
2019-02-14T02:09:31.436Z,1020.47
2019-02-14T02:10:31.424Z,1020.47
2019-02-14T02:11:31.419Z,1020.45
2019-02-14T02:12:31.460Z,1020.48
2019-02-14T02:13:31.417Z,1020.52
2019-02-14T02:14:31.398Z,1020.52
2019-02-14T02:15:31.384Z,1020.49
2019-02-14T02:16:31.387Z,1020.49
2019-02-14T02:17:31.394Z,1020.48
2019-02-14T02:18:31.379Z,1020.47
2019-02-14T02:19:31.332Z,1020.44
2019-02-14T02:20:33.320Z,1020.45
2019-02-14T02:21:31.327Z,1020.41
2019-02-14T02:22:31.303Z,1020.37
2019-02-14T02:23:31.330Z,1020.40
2019-02-14T02:24:31.292Z,1020.36
2019-02-14T02:25:31.290Z,1020.39
2019-02-14T02:26:31.290Z,1020.42
2019-02-14T02:27:31.283Z,1020.49
2019-02-14T02:28:31.227Z,1020.43
2019-02-14T02:29:31.231Z,1020.43
2019-02-14T02:30:31.214Z,1020.52
2019-02-14T02:31:31.237Z,1020.51
2019-02-14T02:32:31.206Z,1020.53
2019-02-14T02:33:31.189Z,1020.56
2019-02-14T02:34:31.220Z,1020.51
2019-02-14T02:35:31.155Z,1020.55
2019-02-14T02:36:31.181Z,1020.57
2019-02-14T02:37:31.151Z,1020.57
2019-02-14T02:38:31.124Z,1020.60
2019-02-14T02:39:31.134Z,1020.57
2019-02-14T02:40:31.095Z,1020.49
2019-02-14T02:41:31.131Z,1020.53
2019-02-14T02:42:31.080Z,1020.51
2019-02-14T02:43:31.116Z,1020.48
2019-02-14T02:44:31.087Z,1020.51
2019-02-14T02:45:31.043Z,1020.49
2019-02-14T02:46:31.054Z,1020.46
2019-02-14T02:47:31.033Z,1020.51
2019-02-14T02:48:31.027Z,1020.51
2019-02-14T02:49:31.045Z,1020.48
2019-02-14T02:50:31.028Z,1020.53
2019-02-14T02:51:31.004Z,1020.51
2019-02-14T02:52:31.025Z,1020.51
2019-02-14T02:53:30.988Z,1020.50
2019-02-14T02:54:30.960Z,1020.49
2019-02-14T02:55:30.968Z,1020.45
2019-02-14T02:56:30.944Z,1020.46
2019-02-14T02:57:30.958Z,1020.43
2019-02-14T02:58:30.908Z,1020.38
2019-02-14T02:59:30.913Z,1020.37
2019-02-14T03:00:30.895Z,1020.40
2019-02-14T03:01:30.933Z,1020.30
2019-02-14T03:02:30.863Z,1020.30
2019-02-14T03:03:30.922Z,1020.29
2019-02-14T03:04:30.883Z,1020.30
2019-02-14T03:05:30.830Z,1020.28
2019-02-14T03:06:30.830Z,1020.26
2019-02-14T03:07:30.830Z,1020.28
2019-02-14T03:08:30.815Z,1020.25
2019-02-14T03:09:30.846Z,1020.25
2019-02-14T03:10:30.809Z,1020.31
2019-02-14T03:11:30.769Z,1020.36
2019-02-14T03:12:30.794Z,1020.35
2019-02-14T03:13:30.824Z,1020.36
2019-02-14T03:14:30.751Z,1020.38
2019-02-14T03:15:30.754Z,1020.37
2019-02-14T03:16:30.734Z,1020.33
2019-02-14T03:17:30.747Z,1020.32
2019-02-14T03:18:30.722Z,1020.29
2019-02-14T03:19:30.753Z,1020.28
2019-02-14T03:20:30.706Z,1020.30
2019-02-14T03:21:30.682Z,1020.35
2019-02-14T03:22:30.693Z,1020.35
2019-02-14T03:23:30.730Z,1020.33
2019-02-14T03:24:30.638Z,1020.29
2019-02-14T03:25:30.646Z,1020.30
2019-02-14T03:26:30.662Z,1020.28
2019-02-14T03:27:30.671Z,1020.31
2019-02-14T03:28:30.669Z,1020.32
2019-02-14T03:29:30.617Z,1020.31
2019-02-14T03:30:30.587Z,1020.30
2019-02-14T03:31:30.581Z,1020.36
2019-02-14T03:32:30.566Z,1020.38
2019-02-14T03:33:30.630Z,1020.39
2019-02-14T03:34:30.551Z,1020.42
2019-02-14T03:35:30.522Z,1020.46
2019-02-14T03:36:30.574Z,1020.47
2019-02-14T03:37:30.508Z,1020.44
2019-02-14T03:38:30.491Z,1020.44
2019-02-14T03:39:30.489Z,1020.44
2019-02-14T03:40:30.482Z,1020.40
2019-02-14T03:41:30.481Z,1020.42
2019-02-14T03:42:30.463Z,1020.42
2019-02-14T03:43:30.482Z,1020.41
2019-02-14T03:44:30.418Z,1020.36
2019-02-14T03:45:30.434Z,1020.39
2019-02-14T03:46:30.417Z,1020.40
2019-02-14T03:47:30.411Z,1020.39
2019-02-14T03:48:30.393Z,1020.41
2019-02-14T03:49:30.402Z,1020.43
2019-02-14T03:50:30.386Z,1020.46
2019-02-14T03:51:30.364Z,1020.48
2019-02-14T03:52:30.399Z,1020.47
2019-02-14T03:53:30.346Z,1020.52
2019-02-14T03:54:30.315Z,1020.50
2019-02-14T03:55:30.360Z,1020.53
2019-02-14T03:56:30.398Z,1020.54
2019-02-14T03:57:30.309Z,1020.50
2019-02-14T03:58:30.320Z,1020.54
2019-02-14T03:59:30.285Z,1020.58
2019-02-14T04:00:30.330Z,1020.51
2019-02-14T04:01:30.278Z,1020.55
2019-02-14T04:02:30.284Z,1020.57
2019-02-14T04:03:30.256Z,1020.55
2019-02-14T04:04:30.219Z,1020.51
2019-02-14T04:05:30.212Z,1020.55
2019-02-14T04:06:30.232Z,1020.60
2019-02-14T04:07:30.218Z,1020.56
2019-02-14T04:08:30.194Z,1020.59
2019-02-14T04:09:30.189Z,1020.59
2019-02-14T04:10:30.162Z,1020.62
2019-02-14T04:11:30.153Z,1020.59
2019-02-14T04:12:30.137Z,1020.61
2019-02-14T04:13:30.170Z,1020.69
2019-02-14T04:14:30.112Z,1020.63
2019-02-14T04:15:30.130Z,1020.65
2019-02-14T04:16:30.098Z,1020.62
2019-02-14T04:17:30.090Z,1020.63
2019-02-14T04:18:30.114Z,1020.64
2019-02-14T04:19:30.063Z,1020.69
2019-02-14T04:20:30.098Z,1020.74
2019-02-14T04:21:30.052Z,1020.73
2019-02-14T04:22:30.082Z,1020.74
2019-02-14T04:23:30.038Z,1020.73
2019-02-14T04:24:30.029Z,1020.77
2019-02-14T04:25:29.998Z,1020.78
2019-02-14T04:26:29.999Z,1020.80
2019-02-14T04:27:29.991Z,1020.82
2019-02-14T04:28:30.016Z,1020.86
2019-02-14T04:29:29.976Z,1020.86
2019-02-14T04:30:29.946Z,1020.84
2019-02-14T04:31:29.972Z,1020.84
2019-02-14T04:32:29.926Z,1020.81
2019-02-14T04:33:29.945Z,1020.80
2019-02-14T04:34:29.930Z,1020.85
2019-02-14T04:35:29.916Z,1020.82
2019-02-14T04:36:35.904Z,1020.85
2019-02-14T04:37:30.863Z,1020.85
2019-02-14T04:38:29.893Z,1020.86
2019-02-14T04:39:29.867Z,1020.84
2019-02-14T04:40:33.610Z,1020.84
2019-02-14T04:41:29.829Z,1020.88
2019-02-14T04:42:29.820Z,1020.88
2019-02-14T04:43:29.804Z,1020.84
2019-02-14T04:44:29.813Z,1020.86
2019-02-14T04:45:29.813Z,1020.86
2019-02-14T04:46:29.844Z,1020.86
2019-02-14T04:47:29.768Z,1020.86
2019-02-14T04:48:29.763Z,1020.83
2019-02-14T04:49:29.803Z,1020.84
2019-02-14T04:50:29.741Z,1020.84
2019-02-14T04:51:29.724Z,1020.89
2019-02-14T04:52:29.702Z,1020.82
2019-02-14T04:53:29.733Z,1020.83
2019-02-14T04:54:29.735Z,1020.81
2019-02-14T04:55:29.721Z,1020.83
2019-02-14T04:56:29.697Z,1020.87
2019-02-14T04:57:29.660Z,1020.88
2019-02-14T04:58:29.654Z,1020.89
2019-02-14T04:59:29.731Z,1020.91
2019-02-14T05:00:29.628Z,1020.89
2019-02-14T05:01:29.616Z,1020.91
2019-02-14T05:02:29.656Z,1020.91
2019-02-14T05:03:29.627Z,1020.94
2019-02-14T05:04:29.604Z,1020.98
2019-02-14T05:05:29.575Z,1020.92
2019-02-14T05:06:29.571Z,1020.97
2019-02-14T05:07:29.603Z,1020.94
2019-02-14T05:08:29.548Z,1020.95
2019-02-14T05:09:29.535Z,1020.99
2019-02-14T05:10:29.519Z,1020.96
2019-02-14T05:11:29.525Z,1021.00
2019-02-14T05:12:29.501Z,1020.97
2019-02-14T05:13:29.552Z,1021.03
2019-02-14T05:14:29.479Z,1020.94
2019-02-14T05:15:29.478Z,1020.94
2019-02-14T05:16:29.460Z,1020.96
2019-02-14T05:17:29.465Z,1020.92
2019-02-14T05:18:29.458Z,1020.91
2019-02-14T05:19:29.418Z,1020.92
2019-02-14T05:20:29.511Z,1020.95
2019-02-14T05:21:29.403Z,1021.00
2019-02-14T05:22:29.459Z,1020.94
2019-02-14T05:23:29.453Z,1020.99
2019-02-14T05:24:29.359Z,1020.98
2019-02-14T05:25:29.364Z,1020.99
2019-02-14T05:26:29.348Z,1021.02
2019-02-14T05:27:29.335Z,1020.97
2019-02-14T05:28:29.355Z,1020.90
2019-02-14T05:29:29.332Z,1020.90
2019-02-14T05:30:29.328Z,1020.94
2019-02-14T05:31:29.331Z,1020.87
2019-02-14T05:32:29.284Z,1020.88
2019-02-14T05:33:29.269Z,1020.90
2019-02-14T05:34:29.273Z,1020.91
2019-02-14T05:35:29.248Z,1020.93
2019-02-14T05:36:29.288Z,1020.96
2019-02-14T05:37:29.274Z,1020.89
2019-02-14T05:38:29.267Z,1020.95
2019-02-14T05:39:29.250Z,1020.89
2019-02-14T05:40:29.259Z,1020.87
2019-02-14T05:41:29.233Z,1020.89
2019-02-14T05:42:29.241Z,1020.89
2019-02-14T05:43:29.225Z,1020.92
2019-02-14T05:44:29.153Z,1020.88
2019-02-14T05:45:29.154Z,1020.89
2019-02-14T05:46:29.186Z,1020.81
2019-02-14T05:47:29.130Z,1020.83
2019-02-14T05:48:29.119Z,1020.81
2019-02-14T05:49:29.158Z,1020.80
2019-02-14T05:50:29.101Z,1020.82
2019-02-14T05:51:29.128Z,1020.81
2019-02-14T05:52:29.124Z,1020.82
2019-02-14T05:53:29.065Z,1020.82
2019-02-14T05:54:29.121Z,1020.87
2019-02-14T05:55:29.039Z,1020.91
2019-02-14T05:56:29.032Z,1020.88
2019-02-14T05:57:29.077Z,1020.86
2019-02-14T05:58:29.083Z,1020.89
2019-02-14T05:59:29.005Z,1020.86
2019-02-14T06:00:29.033Z,1020.86
2019-02-14T06:01:28.997Z,1020.86
2019-02-14T06:02:28.981Z,1020.88
2019-02-14T06:03:28.963Z,1020.90
2019-02-14T06:04:29.001Z,1020.89
2019-02-14T06:05:28.926Z,1020.85
2019-02-14T06:06:28.959Z,1020.88
2019-02-14T06:07:28.914Z,1020.91
2019-02-14T06:08:28.925Z,1020.92
2019-02-14T06:09:28.921Z,1020.94
2019-02-14T06:10:28.880Z,1020.95
2019-02-14T06:11:28.914Z,1020.99
2019-02-14T06:12:28.888Z,1020.95
2019-02-14T06:13:28.892Z,1020.97
2019-02-14T06:14:28.841Z,1020.96
2019-02-14T06:15:28.910Z,1020.89
2019-02-14T06:16:28.812Z,1020.91
2019-02-14T06:17:28.819Z,1020.90
2019-02-14T06:18:28.885Z,1020.86
2019-02-14T06:19:28.803Z,1020.92
2019-02-14T06:20:28.803Z,1020.98
2019-02-14T06:21:28.766Z,1021.00
2019-02-14T06:22:28.767Z,1021.04
2019-02-14T06:23:30.137Z,1021.08
2019-02-14T06:24:28.749Z,1021.07
2019-02-14T06:25:28.774Z,1021.14
2019-02-14T06:26:28.709Z,1021.13
2019-02-14T06:27:28.709Z,1021.10
2019-02-14T06:28:28.715Z,1021.08
2019-02-14T06:29:28.705Z,1021.12
2019-02-14T06:30:28.700Z,1021.15
2019-02-14T06:31:28.659Z,1021.14
2019-02-14T06:32:28.675Z,1021.18
2019-02-14T06:33:28.640Z,1021.21
2019-02-14T06:34:28.650Z,1021.24
2019-02-14T06:35:28.655Z,1021.25
2019-02-14T06:36:28.707Z,1021.24
2019-02-14T06:37:28.611Z,1021.24
2019-02-14T06:38:28.577Z,1021.27
2019-02-14T06:39:28.574Z,1021.26
2019-02-14T06:40:28.582Z,1021.27
2019-02-14T06:41:28.551Z,1021.29
2019-02-14T06:42:28.543Z,1021.27
2019-02-14T06:43:28.540Z,1021.28
2019-02-14T06:44:28.521Z,1021.30
2019-02-14T06:45:28.522Z,1021.30
2019-02-14T06:46:28.584Z,1021.32
2019-02-14T06:47:28.531Z,1021.27
2019-02-14T06:48:28.516Z,1021.31
2019-02-14T06:49:28.511Z,1021.34
2019-02-14T06:50:34.651Z,1021.33
2019-02-14T06:51:29.466Z,1021.34
2019-02-14T06:52:28.427Z,1021.28
2019-02-14T06:53:28.470Z,1021.35
2019-02-14T06:54:28.457Z,1021.36
2019-02-14T06:55:28.408Z,1021.41
2019-02-14T06:56:28.392Z,1021.39
2019-02-14T06:57:28.413Z,1021.43
2019-02-14T06:58:28.370Z,1021.48
2019-02-14T06:59:28.398Z,1021.51
2019-02-14T07:00:28.379Z,1021.49
2019-02-14T07:01:28.354Z,1021.48
2019-02-14T07:02:28.332Z,1021.49
2019-02-14T07:03:28.321Z,1021.50
2019-02-14T07:04:28.339Z,1021.50
2019-02-14T07:05:28.309Z,1021.51
2019-02-14T07:06:28.311Z,1021.54
2019-02-14T07:07:28.294Z,1021.56
2019-02-14T07:08:28.268Z,1021.54
2019-02-14T07:09:28.264Z,1021.51
2019-02-14T07:10:28.273Z,1021.51
2019-02-14T07:11:28.322Z,1021.56
2019-02-14T07:12:28.231Z,1021.51
2019-02-14T07:13:28.216Z,1021.54
2019-02-14T07:14:28.207Z,1021.55
2019-02-14T07:15:28.198Z,1021.56
2019-02-14T07:16:28.235Z,1021.54
2019-02-14T07:17:28.182Z,1021.55
2019-02-14T07:18:28.218Z,1021.49
2019-02-14T07:19:28.154Z,1021.52
2019-02-14T07:20:28.135Z,1021.49
2019-02-14T07:21:28.208Z,1021.49
2019-02-14T07:22:28.160Z,1021.52
2019-02-14T07:23:28.150Z,1021.52
2019-02-14T07:24:28.099Z,1021.48
2019-02-14T07:25:28.171Z,1021.49
2019-02-14T07:26:28.078Z,1021.53
2019-02-14T07:27:28.102Z,1021.55
2019-02-14T07:28:28.067Z,1021.56
2019-02-14T07:29:28.040Z,1021.57
2019-02-14T07:30:28.055Z,1021.61
2019-02-14T07:31:28.031Z,1021.66
2019-02-14T07:32:28.025Z,1021.65
2019-02-14T07:33:28.018Z,1021.71
2019-02-14T07:34:28.004Z,1021.72
2019-02-14T07:35:28.022Z,1021.76
2019-02-14T07:36:28.007Z,1021.78
2019-02-14T07:37:27.975Z,1021.77
2019-02-14T07:38:27.950Z,1021.79
2019-02-14T07:39:27.966Z,1021.90
2019-02-14T07:40:29.696Z,1021.84
2019-02-14T07:41:27.921Z,1021.79
2019-02-14T07:42:27.909Z,1021.68
2019-02-14T07:43:27.893Z,1021.67
2019-02-14T07:44:27.884Z,1021.62
2019-02-14T07:45:27.899Z,1021.58
2019-02-14T07:46:27.865Z,1021.61
2019-02-14T07:47:27.850Z,1021.58
2019-02-14T07:48:27.857Z,1021.56
2019-02-14T07:49:27.822Z,1021.50
2019-02-14T07:50:27.829Z,1021.42
2019-02-14T07:51:27.807Z,1021.41
2019-02-14T07:52:27.800Z,1021.47
2019-02-14T07:53:27.784Z,1021.51
2019-02-14T07:54:27.788Z,1021.50
2019-02-14T07:55:27.777Z,1021.46
2019-02-14T07:56:27.765Z,1021.52
2019-02-14T07:57:27.765Z,1021.59
2019-02-14T07:58:27.757Z,1021.62
2019-02-14T07:59:27.721Z,1021.63
2019-02-14T08:00:27.719Z,1021.61
2019-02-14T08:01:27.714Z,1021.65
2019-02-14T08:02:27.693Z,1021.68
2019-02-14T08:03:27.682Z,1021.72
2019-02-14T08:04:27.661Z,1021.70
2019-02-14T08:05:27.672Z,1021.76
2019-02-14T08:06:27.645Z,1021.82
2019-02-14T08:07:35.495Z,1021.83
2019-02-14T08:08:28.618Z,1021.70
2019-02-14T08:09:27.606Z,1021.73
2019-02-14T08:10:27.592Z,1021.73
2019-02-14T08:11:27.600Z,1021.68
2019-02-14T08:12:27.576Z,1021.66
2019-02-14T08:13:27.562Z,1021.59
2019-02-14T08:14:27.567Z,1021.57
2019-02-14T08:15:27.542Z,1021.46
2019-02-14T08:16:27.542Z,1021.40
2019-02-14T08:17:27.523Z,1021.45
2019-02-14T08:18:27.531Z,1021.58
2019-02-14T08:19:27.505Z,1021.75
2019-02-14T08:20:27.500Z,1021.95
2019-02-14T08:21:27.475Z,1021.93
2019-02-14T08:22:27.475Z,1021.88
2019-02-14T08:23:27.465Z,1021.82
2019-02-14T08:24:27.453Z,1021.86
2019-02-14T08:25:27.439Z,1021.88
2019-02-14T08:26:27.432Z,1021.81
2019-02-14T08:27:27.407Z,1021.79
2019-02-14T08:28:27.412Z,1021.77
2019-02-14T08:29:27.393Z,1021.73
2019-02-14T08:30:27.383Z,1021.76
2019-02-14T08:31:27.384Z,1021.74
2019-02-14T08:32:27.378Z,1021.54
2019-02-14T08:33:27.355Z,1021.45
2019-02-14T08:34:27.330Z,1021.41
2019-02-14T08:35:27.319Z,1021.41
2019-02-14T08:36:27.312Z,1021.41
2019-02-14T08:37:27.310Z,1021.42
2019-02-14T08:38:27.308Z,1021.41
2019-02-14T08:39:27.283Z,1021.48
2019-02-14T08:40:27.270Z,1021.46
2019-02-14T08:41:27.257Z,1021.46
2019-02-14T08:42:27.254Z,1021.52
2019-02-14T08:43:27.268Z,1021.50
2019-02-14T08:44:27.230Z,1021.45
2019-02-14T08:45:27.223Z,1021.48
2019-02-14T08:46:27.214Z,1021.54
2019-02-14T08:47:27.193Z,1021.48
2019-02-14T08:48:27.184Z,1021.54
2019-02-14T08:49:27.183Z,1021.52
2019-02-14T08:50:27.169Z,1021.56
2019-02-14T08:51:27.180Z,1021.51
2019-02-14T08:52:27.141Z,1021.54
2019-02-14T08:53:27.133Z,1021.50
2019-02-14T08:54:27.126Z,1021.51
2019-02-14T08:55:27.104Z,1021.61
2019-02-14T08:56:27.098Z,1021.72
2019-02-14T08:57:27.085Z,1021.66
2019-02-14T08:58:27.077Z,1021.55
2019-02-14T08:59:27.075Z,1021.52
2019-02-14T09:00:27.051Z,1021.50
2019-02-14T09:01:27.039Z,1021.51
2019-02-14T09:02:27.042Z,1021.61
2019-02-14T09:03:27.020Z,1021.69
2019-02-14T09:04:27.012Z,1021.81
2019-02-14T09:05:27.007Z,1021.76
2019-02-14T09:06:26.981Z,1021.72
2019-02-14T09:07:26.982Z,1021.71
2019-02-14T09:08:26.969Z,1021.71
2019-02-14T09:09:26.956Z,1021.63
2019-02-14T09:10:26.966Z,1021.65
2019-02-14T09:11:26.975Z,1021.62
2019-02-14T09:12:26.923Z,1021.65
2019-02-14T09:13:26.907Z,1021.62
2019-02-14T09:14:26.894Z,1021.56
2019-02-14T09:15:26.901Z,1021.58
2019-02-14T09:16:26.886Z,1021.65
2019-02-14T09:17:26.863Z,1021.60
2019-02-14T09:18:26.852Z,1021.62
2019-02-14T09:19:26.839Z,1021.58
2019-02-14T09:20:26.839Z,1021.56
2019-02-14T09:21:26.822Z,1021.52
2019-02-14T09:22:26.813Z,1021.48
2019-02-14T09:23:26.801Z,1021.47
2019-02-14T09:24:26.789Z,1021.44
2019-02-14T09:25:26.790Z,1021.41
2019-02-14T09:26:26.759Z,1021.38
2019-02-14T09:27:26.749Z,1021.27
2019-02-14T09:28:26.750Z,1021.22
2019-02-14T09:29:26.731Z,1021.19
2019-02-14T09:30:26.742Z,1021.20
2019-02-14T09:31:26.726Z,1021.30
2019-02-14T09:32:26.705Z,1021.32
2019-02-14T09:33:26.693Z,1021.32
2019-02-14T09:34:26.690Z,1021.35
2019-02-14T09:35:27.195Z,1021.33
2019-02-14T09:36:26.656Z,1021.38
2019-02-14T09:37:26.664Z,1021.42
2019-02-14T09:38:26.631Z,1021.35
2019-02-14T09:39:26.622Z,1021.40
2019-02-14T09:40:26.644Z,1021.42
2019-02-14T09:41:26.600Z,1021.41
2019-02-14T09:42:26.598Z,1021.53
2019-02-14T09:43:29.848Z,1021.51
2019-02-14T09:44:26.569Z,1021.55
2019-02-14T09:45:26.570Z,1021.56
2019-02-14T09:46:26.564Z,1021.57
2019-02-14T09:47:26.539Z,1021.56
2019-02-14T09:48:26.526Z,1021.53
2019-02-14T09:49:26.526Z,1021.60
2019-02-14T09:50:26.506Z,1021.57
2019-02-14T09:51:26.500Z,1021.56
2019-02-14T09:52:26.486Z,1021.59
2019-02-14T09:53:26.492Z,1021.58
2019-02-14T09:54:26.475Z,1021.59
2019-02-14T09:55:26.448Z,1021.59
2019-02-14T09:56:26.482Z,1021.67
2019-02-14T09:57:26.437Z,1021.66
2019-02-14T09:58:26.469Z,1021.66
2019-02-14T09:59:26.397Z,1021.73
2019-02-14T10:00:26.414Z,1021.72
2019-02-14T10:01:26.384Z,1021.69
2019-02-14T10:02:26.384Z,1021.72
2019-02-14T10:03:26.352Z,1021.69
2019-02-14T10:04:26.351Z,1021.66
2019-02-14T10:05:26.339Z,1021.70
2019-02-14T10:06:26.347Z,1021.67
2019-02-14T10:07:26.329Z,1021.66
2019-02-14T10:08:26.324Z,1021.58
2019-02-14T10:09:26.294Z,1021.63
2019-02-14T10:10:26.315Z,1021.62
2019-02-14T10:11:26.273Z,1021.62
2019-02-14T10:12:26.278Z,1021.63
2019-02-14T10:13:26.253Z,1021.58
2019-02-14T10:14:26.248Z,1021.60
2019-02-14T10:15:26.235Z,1021.57
2019-02-14T10:16:26.234Z,1021.57
2019-02-14T10:17:26.207Z,1021.58
2019-02-14T10:18:26.196Z,1021.59
2019-02-14T10:19:26.188Z,1021.58
2019-02-14T10:20:26.203Z,1021.58
2019-02-14T10:21:26.214Z,1021.59
2019-02-14T10:22:26.230Z,1021.58
2019-02-14T10:23:26.173Z,1021.60
2019-02-14T10:24:26.129Z,1021.56
2019-02-14T10:25:26.139Z,1021.53
2019-02-14T10:26:26.113Z,1021.57
2019-02-14T10:27:26.102Z,1021.52
2019-02-14T10:28:26.100Z,1021.54
2019-02-14T10:29:26.099Z,1021.55
2019-02-14T10:30:26.078Z,1021.52
2019-02-14T10:31:26.068Z,1021.48
2019-02-14T10:32:26.130Z,1021.55
2019-02-14T10:33:26.090Z,1021.54
2019-02-14T10:34:26.034Z,1021.48
2019-02-14T10:35:26.043Z,1021.57
2019-02-14T10:36:25.997Z,1021.52
2019-02-14T10:37:26.066Z,1021.52
2019-02-14T10:38:26.012Z,1021.47
2019-02-14T10:39:25.969Z,1021.50
2019-02-14T10:40:25.955Z,1021.47
2019-02-14T10:41:25.952Z,1021.47
2019-02-14T10:42:25.935Z,1021.38
2019-02-14T10:43:25.937Z,1021.32
2019-02-14T10:44:25.909Z,1021.37
2019-02-14T10:45:25.898Z,1021.40
2019-02-14T10:46:25.896Z,1021.32
2019-02-14T10:47:25.878Z,1021.37
2019-02-14T10:48:25.881Z,1021.36
2019-02-14T10:49:25.886Z,1021.33
2019-02-14T10:50:25.895Z,1021.33
2019-02-14T10:51:25.884Z,1021.35
2019-02-14T10:52:25.871Z,1021.37
2019-02-14T10:53:25.813Z,1021.32
2019-02-14T10:54:25.817Z,1021.33
2019-02-14T10:55:25.803Z,1021.30
2019-02-14T10:56:25.776Z,1021.35
2019-02-14T10:57:25.794Z,1021.36
2019-02-14T10:58:25.757Z,1021.34
2019-02-14T10:59:25.752Z,1021.33
2019-02-14T11:00:25.743Z,1021.32
2019-02-14T11:01:25.718Z,1021.30
2019-02-14T11:02:25.708Z,1021.31
2019-02-14T11:03:25.696Z,1021.31
2019-02-14T11:04:25.700Z,1021.32
2019-02-14T11:05:25.713Z,1021.24
2019-02-14T11:06:25.675Z,1021.26
2019-02-14T11:07:25.654Z,1021.26
2019-02-14T11:08:31.693Z,1021.21
2019-02-14T11:09:26.639Z,1021.20
2019-02-14T11:10:25.646Z,1021.25
2019-02-14T11:11:25.616Z,1021.18
2019-02-14T11:12:25.602Z,1021.24
2019-02-14T11:13:25.586Z,1021.21
2019-02-14T11:14:29.223Z,1021.28
2019-02-14T11:15:25.582Z,1021.22
2019-02-14T11:16:25.560Z,1021.24
2019-02-14T11:17:25.551Z,1021.24
2019-02-14T11:18:25.540Z,1021.27
2019-02-14T11:19:25.530Z,1021.16
2019-02-14T11:20:25.537Z,1021.17
2019-02-14T11:21:25.502Z,1021.14
2019-02-14T11:22:25.498Z,1021.12
2019-02-14T11:23:25.485Z,1021.12
2019-02-14T11:24:25.472Z,1021.18
2019-02-14T11:25:25.461Z,1021.10
2019-02-14T11:26:25.457Z,1021.13
2019-02-14T11:27:25.435Z,1021.12
2019-02-14T11:28:25.426Z,1021.09
2019-02-14T11:29:25.428Z,1021.10
2019-02-14T11:30:25.415Z,1021.11
2019-02-14T11:31:25.410Z,1021.10
2019-02-14T11:32:25.402Z,1021.02
2019-02-14T11:33:25.383Z,1020.99
2019-02-14T11:34:25.358Z,1020.93
2019-02-14T11:35:25.353Z,1020.87
2019-02-14T11:36:25.371Z,1020.92
2019-02-14T11:37:25.881Z,1020.87
2019-02-14T11:38:25.326Z,1020.88
2019-02-14T11:39:25.311Z,1020.88
2019-02-14T11:40:25.305Z,1020.97
2019-02-14T11:41:25.303Z,1020.91
2019-02-14T11:42:25.298Z,1020.90
2019-02-14T11:43:25.266Z,1020.91
2019-02-14T11:44:25.263Z,1020.85
2019-02-14T11:45:25.240Z,1020.89
2019-02-14T11:46:25.240Z,1020.87
2019-02-14T11:47:25.227Z,1020.79
2019-02-14T11:48:25.209Z,1020.90
2019-02-14T11:49:25.198Z,1020.90
2019-02-14T11:50:25.207Z,1020.88
2019-02-14T11:51:25.192Z,1020.95
2019-02-14T11:52:25.176Z,1020.88
2019-02-14T11:53:25.163Z,1020.86
2019-02-14T11:54:25.137Z,1020.85
2019-02-14T11:55:25.135Z,1020.79
2019-02-14T11:56:25.157Z,1020.76
2019-02-14T11:57:25.144Z,1020.75
2019-02-14T11:58:25.093Z,1020.75
2019-02-14T11:59:25.093Z,1020.73
2019-02-14T12:00:25.074Z,1020.72
2019-02-14T12:01:25.108Z,1020.72
2019-02-14T12:02:25.080Z,1020.74
2019-02-14T12:03:25.054Z,1020.74
2019-02-14T12:04:25.108Z,1020.72
2019-02-14T12:05:25.043Z,1020.76